| time (UTC) | temp C | wind direction | speed KPH | gust KPH | rain 1hr cm | rain 24hr cm | rain mn cm | humidity % | barometer mb |
| 20260510045309 | 22 | 145 | 0.0 | 1.6 | 0.00 | 1.52 | 1.52 | 97 | 1011.2 |
| 20260510044544 | 22 | 146 | 0.0 | 1.6 | 0.00 | 1.52 | 1.52 | 97 | 1011.2 |
| 20260510044233 | 21 | 146 | 0.0 | 1.6 | 0.00 | 1.52 | 1.52 | 97 | 1011.2 |
| 20260510043515 | 22 | 146 | 0.0 | 1.6 | 0.00 | 1.52 | 1.52 | 96 | 1011.2 |
| 20260510042947 | 21 | 146 | 0.0 | 1.6 | 0.00 | 1.52 | 1.52 | 96 | 1011.2 |
| 20260510042706 | 21 | 146 | 0.0 | 3.2 | 0.00 | 1.52 | 1.52 | 96 | 1011.3 |
| 20260510041918 | 21 | 146 | 0.0 | 1.6 | 0.00 | 1.52 | 1.52 | 96 | 1011.2 |
| 20260510041414 | 21 | 146 | 0.0 | 0.0 | 0.00 | 1.52 | 1.52 | 96 | 1011.2 |
| 20260510040848 | 21 | 146 | 0.0 | 1.6 | 0.00 | 1.52 | 1.52 | 96 | 1011.2 |
| 20260510040545 | 21 | 146 | 0.0 | 1.6 | 0.00 | 1.52 | 1.52 | 96 | 1011.3 |
| 20260510035819 | 21 | 146 | 1.6 | 3.2 | 0.00 | 1.52 | 1.52 | 96 | 1011.0 |
| 20260510035251 | 21 | 146 | 1.6 | 4.8 | 0.00 | 1.52 | 1.52 | 96 | 1011.1 |
| 20260510035007 | 22 | 146 | 1.6 | 6.4 | 0.00 | 1.52 | 1.52 | 96 | 1011.3 |
| 20260510034241 | 22 | 146 | 3.2 | 11.3 | 0.00 | 1.52 | 1.52 | 96 | 1011.4 |
| 20260510033739 | 22 | 131 | 1.6 | 11.3 | 0.00 | 1.52 | 1.52 | 96 | 1011.5 |
| 20260510033211 | 22 | 153 | 3.2 | 14.5 | 0.00 | 1.52 | 1.52 | 96 | 1011.5 |
| 20260510032643 | 22 | 144 | 3.2 | 14.5 | 0.00 | 1.52 | 1.52 | 96 | 1011.3 |
| 20260510032140 | 22 | 143 | 4.8 | 14.5 | 0.00 | 1.52 | 1.52 | 96 | 1011.5 |
| 20260510031637 | 23 | 84 | 4.8 | 14.5 | 0.00 | 1.52 | 1.52 | 96 | 1011.5 |
| 20260510031134 | 23 | 75 | 3.2 | 14.5 | 0.00 | 1.52 | 1.52 | 97 | 1011.4 |
| 20260510030608 | 23 | 57 | 3.2 | 11.3 | 0.00 | 1.52 | 1.52 | 97 | 1011.4 |
| 20260510030103 | 23 | 196 | 3.2 | 12.9 | 0.00 | 1.52 | 1.52 | 97 | 1011.3 |
| 20260510025601 | 23 | 106 | 1.6 | 8.0 | 0.00 | 1.52 | 1.52 | 97 | 1011.3 |
| 20260510025033 | 23 | 127 | 3.2 | 8.0 | 0.00 | 1.52 | 1.52 | 97 | 1011.0 |
| 20260510024531 | 22 | 155 | 3.2 | 8.0 | 0.00 | 1.52 | 1.52 | 97 | 1010.8 |
| 20260510024004 | 22 | 127 | 1.6 | 6.4 | 0.00 | 1.52 | 1.52 | 97 | 1010.6 |
| 20260510023437 | 22 | 139 | 0.0 | 3.2 | 0.00 | 1.52 | 1.52 | 96 | 1010.4 |
| 20260510022933 | 21 | 141 | 0.0 | 0.0 | 0.00 | 1.52 | 1.52 | 96 | 1010.0 |
| 20260510022432 | 21 | 0 | 0.0 | 0.0 | 0.00 | 1.52 | 1.52 | 96 | 1009.9 |
| 20260510021928 | 21 | 139 | 0.0 | 0.0 | 0.00 | 1.52 | 1.52 | 96 | 1009.7 |
| 20260510021401 | 21 | 0 | 0.0 | 0.0 | 0.00 | 1.52 | 1.52 | 95 | 1009.6 |
| 20260510020858 | 21 | 0 | 0.0 | 0.0 | 0.03 | 1.52 | 1.52 | 95 | 1009.5 |
| 20260510020332 | 21 | 0 | 0.0 | 1.6 | 0.25 | 1.52 | 1.52 | 95 | 1009.2 |
| 20260510015828 | 21 | 0 | 0.0 | 1.6 | 0.33 | 1.52 | 1.52 | 95 | 1009.0 |
| 20260510015324 | 21 | 0 | 0.0 | 1.6 | 0.38 | 1.52 | 1.52 | 94 | 1008.9 |
| 20260510015046 | 21 | 0 | 0.0 | 1.6 | 0.56 | 1.52 | 1.52 | 94 | 1008.8 |
| 20260510014255 | 21 | 0 | 0.0 | 3.2 | 0.99 | 1.52 | 1.52 | 94 | 1008.8 |
| 20260510013727 | 21 | 0 | 0.0 | 3.2 | 1.52 | 1.52 | 1.52 | 93 | 1008.7 |
| 20260510013224 | 21 | 0 | 0.0 | 3.2 | 1.52 | 1.52 | 1.52 | 93 | 1008.7 |
| 20260510012658 | 21 | 0 | 0.0 | 4.8 | 1.52 | 1.52 | 1.52 | 92 | 1008.6 |
| 20260510012155 | 21 | 0 | 1.6 | 4.8 | 1.52 | 1.52 | 1.52 | 92 | 1008.7 |
| 20260510011628 | 21 | 0 | 1.6 | 6.4 | 1.52 | 1.52 | 1.52 | 91 | 1008.6 |
| 20260510011125 | 21 | 0 | 1.6 | 8.0 | 1.50 | 1.50 | 1.52 | 91 | 1008.8 |
| 20260510010558 | 22 | 0 | 3.2 | 8.0 | 1.45 | 1.45 | 1.47 | 90 | 1008.9 |
| 20260510010540 | 22 | 0 | 3.2 | 14.5 | 1.19 | 1.19 | 1.19 | 88 | 1008.9 |
| 20260510005647 | 23 | 136 | 8.0 | 30.6 | 1.02 | 1.02 | 1.07 | 80 | 1009.0 |
| 20260510005534 | 22 | 0 | 6.4 | 14.5 | 1.14 | 1.14 | 1.17 | 82 | 1009.2 |
| 20260510004903 | 27 | 122 | 6.4 | 30.6 | 0.76 | 0.76 | 0.76 | 72 | 1009.1 |
| 20260510003837 | 29 | 98 | 4.8 | 14.5 | 0.00 | 0.00 | 0.00 | 70 | 1008.6 |
| 20260510003309 | 29 | 281 | 1.6 | 8.0 | 0.00 | 0.00 | 0.00 | 74 | 1008.0 |
| 20260510002806 | 30 | 332 | 0.0 | 1.6 | 0.00 | 0.00 | 0.00 | 74 | 1007.8 |
| 20260510002239 | 30 | 333 | 0.0 | 3.2 | 0.00 | 0.00 | 0.00 | 76 | 1007.9 |
| 20260510001715 | 30 | 333 | 0.0 | 1.6 | 0.00 | 0.00 | 0.00 | 76 | 1007.8 |
| 20260510001409 | 30 | 333 | 0.0 | 1.6 | 0.00 | 0.00 | 0.00 | 75 | 1007.7 |
| 20260510000618 | 30 | 333 | 0.0 | 1.6 | 0.00 | 0.00 | 0.00 | 75 | 1007.8 |
| 20260510000114 | 30 | 333 | 0.0 | 1.6 | 0.00 | 0.00 | 0.00 | 74 | 1007.6 |
| 20260509235548 | 30 | 333 | 0.0 | 1.6 | 0.00 | 0.00 | 0.00 | 75 | 1007.6 |
| 20260509235022 | 30 | 333 | 0.0 | 1.6 | 0.00 | 0.00 | 0.00 | 74 | 1007.6 |
| 20260509234518 | 30 | 333 | 0.0 | 1.6 | 0.00 | 0.00 | 0.00 | 70 | 1007.6 |
| 20260509234005 | 30 | 333 | 0.0 | 1.6 | 0.00 | 0.00 | 0.00 | 70 | 1007.5 |
| 20260509233509 | 31 | 333 | 0.0 | 1.6 | 0.00 | 0.00 | 0.00 | 72 | 1007.6 |
| 20260509232944 | 31 | 333 | 0.0 | 1.6 | 0.00 | 0.00 | 0.00 | 69 | 1007.7 |
| 20260509232417 | 31 | 333 | 0.0 | 1.6 | 0.00 | 0.00 | 0.00 | 68 | 1007.7 |
| 20260509231915 | 31 | 333 | 1.6 | 1.6 | 0.00 | 0.00 | 0.00 | 70 | 1007.5 |
| 20260509231349 | 31 | 333 | 1.6 | 1.6 | 0.00 | 0.00 | 0.00 | 68 | 1007.5 |
| 20260509230822 | 31 | 333 | 0.0 | 1.6 | 0.00 | 0.00 | 0.00 | 68 | 1007.6 |
| 20260509230321 | 31 | 333 | 0.0 | 1.6 | 0.00 | 0.00 | 0.00 | 65 | 1007.4 |
| 20260509230015 | 31 | 333 | 0.0 | 3.2 | 0.00 | 0.00 | 0.00 | 66 | 1007.4 |
| 20260509225230 | 32 | 333 | 0.0 | 3.2 | 0.00 | 0.00 | 0.00 | 65 | 1007.3 |
| 20260509224925 | 32 | 333 | 1.6 | 4.8 | 0.00 | 0.00 | 0.00 | 65 | 1007.3 |
| 20260509224201 | 32 | 333 | 1.6 | 4.8 | 0.00 | 0.00 | 0.00 | 61 | 1007.3 |
| 20260509223639 | 32 | 331 | 1.6 | 4.8 | 0.00 | 0.00 | 0.00 | 62 | 1007.4 |
| 20260509223141 | 32 | 332 | 0.0 | 4.8 | 0.00 | 0.00 | 0.00 | 64 | 1007.4 |
| 20260509222639 | 32 | 331 | 1.6 | 6.4 | 0.00 | 0.00 | 0.00 | 62 | 1007.3 |
| 20260509222140 | 32 | 331 | 3.2 | 6.4 | 0.00 | 0.00 | 0.00 | 61 | 1007.3 |
| 20260509221614 | 32 | 314 | 1.6 | 8.0 | 0.00 | 0.00 | 0.00 | 61 | 1007.2 |
| 20260509221108 | 32 | 333 | 3.2 | 8.0 | 0.00 | 0.00 | 0.00 | 62 | 1007.3 |
| 20260509220605 | 32 | 32 | 3.2 | 8.0 | 0.00 | 0.00 | 0.00 | 62 | 1007.3 |
| 20260509220038 | 32 | 17 | 3.2 | 8.0 | 0.00 | 0.00 | 0.00 | 62 | 1007.3 |
| 20260509215512 | 32 | 316 | 3.2 | 8.0 | 0.00 | 0.00 | 0.00 | 61 | 1007.3 |
| 20260509215231 | 33 | 94 | 1.6 | 6.4 | 0.00 | 0.00 | 0.00 | 62 | 1007.2 |
| 20260509214442 | 33 | 134 | 3.2 | 6.4 | 0.00 | 0.00 | 0.00 | 63 | 1007.2 |
| 20260509213936 | 33 | 102 | 3.2 | 6.4 | 0.00 | 0.00 | 0.00 | 65 | 1007.3 |
| 20260509213431 | 32 | 68 | 3.2 | 8.0 | 0.00 | 0.00 | 0.00 | 63 | 1007.3 |
| 20260509212926 | 32 | 64 | 3.2 | 8.0 | 0.00 | 0.00 | 0.00 | 63 | 1007.3 |
| 20260509212404 | 33 | 288 | 3.2 | 6.4 | 0.00 | 0.00 | 0.00 | 64 | 1007.3 |
| 20260509211903 | 33 | 165 | 3.2 | 6.4 | 0.00 | 0.00 | 0.00 | 66 | 1007.4 |
| 20260509211339 | 32 | 92 | 1.6 | 4.8 | 0.00 | 0.00 | 0.00 | 66 | 1007.4 |
| 20260509210816 | 32 | 173 | 1.6 | 8.0 | 0.00 | 0.00 | 0.00 | 70 | 1007.5 |
| 20260509210250 | 32 | 125 | 1.6 | 6.4 | 0.00 | 0.00 | 0.00 | 66 | 1007.5 |
| 20260509205726 | 32 | 141 | 1.6 | 6.4 | 0.00 | 0.00 | 0.00 | 67 | 1007.6 |
| 20260509205225 | 31 | 309 | 1.6 | 4.8 | 0.00 | 0.00 | 0.00 | 69 | 1007.7 |
| 20260509204918 | 31 | 300 | 1.6 | 6.4 | 0.00 | 0.00 | 0.00 | 67 | 1007.8 |
| 20260509204201 | 31 | 40 | 3.2 | 8.0 | 0.00 | 0.00 | 0.00 | 66 | 1007.9 |
| 20260509203635 | 31 | 340 | 3.2 | 8.0 | 0.00 | 0.00 | 0.00 | 66 | 1008.0 |
| 20260509203107 | 31 | 307 | 3.2 | 8.0 | 0.00 | 0.00 | 0.00 | 66 | 1007.9 |
| 20260509202543 | 31 | 286 | 1.6 | 8.0 | 0.00 | 0.00 | 0.00 | 67 | 1008.1 |
| 20260509202017 | 31 | 211 | 3.2 | 4.8 | 0.00 | 0.00 | 0.00 | 68 | 1008.2 |
| 20260509201515 | 31 | 169 | 3.2 | 8.0 | 0.00 | 0.00 | 0.00 | 69 | 1008.1 |
| 20260509200949 | 31 | 329 | 3.2 | 6.4 | 0.00 | 0.00 | 0.00 | 66 | 1008.2 |
| 20260509200421 | 31 | 228 | 1.6 | 6.4 | 0.00 | 0.00 | 0.00 | 68 | 1008.3 |
| 20260509195921 | 31 | 259 | 1.6 | 6.4 | 0.00 | 0.00 | 0.00 | 68 | 1008.4 |
| 20260509195357 | 31 | 72 | 3.2 | 6.4 | 0.00 | 0.00 | 0.00 | 70 | 1008.6 |
| 20260509194833 | 31 | 319 | 3.2 | 6.4 | 0.00 | 0.00 | 0.00 | 69 | 1008.5 |
| 20260509194334 | 30 | 354 | 3.2 | 8.0 | 0.00 | 0.00 | 0.00 | 70 | 1008.5 |
| 20260509193808 | 30 | 352 | 3.2 | 8.0 | 0.00 | 0.00 | 0.00 | 71 | 1008.5 |
| 20260509193309 | 31 | 285 | 3.2 | 11.3 | 0.00 | 0.00 | 0.00 | 71 | 1008.6 |
| 20260509193017 | 31 | 16 | 3.2 | 11.3 | 0.00 | 0.00 | 0.00 | 71 | 1008.7 |
| 20260509192259 | 31 | 0 | 1.6 | 6.4 | 0.00 | 0.00 | 0.00 | 72 | 1008.7 |
| 20260509191735 | 30 | 262 | 1.6 | 6.4 | 0.00 | 0.00 | 0.00 | 74 | 1008.8 |
| 20260509191234 | 30 | 291 | 1.6 | 6.4 | 0.00 | 0.00 | 0.00 | 74 | 1008.8 |
| 20260509190710 | 30 | 311 | 1.6 | 6.4 | 0.00 | 0.00 | 0.00 | 76 | 1008.8 |
| 20260509190210 | 30 | 261 | 1.6 | 8.0 | 0.00 | 0.00 | 0.00 | 76 | 1008.8 |
| 20260509185640 | 30 | 91 | 1.6 | 8.0 | 0.00 | 0.00 | 0.00 | 75 | 1008.9 |
| 20260509185139 | 30 | 165 | 3.2 | 8.0 | 0.00 | 0.00 | 0.00 | 74 | 1009.1 |
| 20260509184629 | 30 | 149 | 3.2 | 8.0 | 0.00 | 0.00 | 0.00 | 76 | 1009.2 |
| 20260509184126 | 30 | 230 | 1.6 | 4.8 | 0.00 | 0.00 | 0.00 | 76 | 1009.2 |
| 20260509184114 | 30 | 276 | 1.6 | 4.8 | 0.00 | 0.00 | 0.00 | 73 | 1009.3 |
| 20260509183105 | 30 | 175 | 1.6 | 4.8 | 0.00 | 0.00 | 0.00 | 74 | 1009.4 |
| 20260509182822 | 30 | 191 | 1.6 | 4.8 | 0.00 | 0.00 | 0.00 | 74 | 1009.4 |
| 20260509182102 | 30 | 174 | 1.6 | 8.0 | 0.00 | 0.00 | 0.00 | 76 | 1009.4 |
| 20260509181832 | 30 | 194 | 3.2 | 6.4 | 0.00 | 0.00 | 0.00 | 76 | 1009.6 |
| 20260509181036 | 30 | 176 | 3.2 | 8.0 | 0.00 | 0.00 | 0.00 | 77 | 1009.7 |
| 20260509180513 | 30 | 184 | 3.2 | 8.0 | 0.00 | 0.00 | 0.00 | 77 | 1009.8 |
| 20260509175951 | 29 | 191 | 3.2 | 9.7 | 0.00 | 0.00 | 0.00 | 77 | 1009.8 |
| 20260509175450 | 29 | 140 | 3.2 | 9.7 | 0.00 | 0.00 | 0.00 | 77 | 1009.9 |
| 20260509174925 | 29 | 263 | 1.6 | 6.4 | 0.00 | 0.00 | 0.00 | 77 | 1009.9 |
| 20260509174422 | 29 | 148 | 1.6 | 4.8 | 0.00 | 0.00 | 0.00 | 78 | 1010.1 |
| 20260509173914 | 29 | 97 | 1.6 | 9.7 | 0.00 | 0.00 | 0.00 | 79 | 1010.1 |
| 20260509173354 | 29 | 143 | 1.6 | 9.7 | 0.00 | 0.00 | 0.00 | 78 | 1010.1 |
| 20260509173118 | 30 | 219 | 1.6 | 6.4 | 0.00 | 0.00 | 0.00 | 78 | 1010.0 |
| 20260509172324 | 30 | 310 | 3.2 | 8.0 | 0.00 | 0.00 | 0.00 | 79 | 1009.9 |
| 20260509171825 | 30 | 139 | 3.2 | 9.7 | 0.00 | 0.00 | 0.00 | 80 | 1009.8 |
| 20260509171302 | 29 | 179 | 3.2 | 9.7 | 0.00 | 0.00 | 0.00 | 83 | 1009.7 |
| 20260509170744 | 28 | 208 | 1.6 | 4.8 | 0.00 | 0.00 | 0.00 | 83 | 1009.7 |
| 20260509170242 | 28 | 305 | 1.6 | 8.0 | 0.00 | 0.00 | 0.00 | 80 | 1009.7 |
| 20260509165743 | 28 | 306 | 1.6 | 8.0 | 0.00 | 0.00 | 0.00 | 83 | 1009.8 |
| 20260509165215 | 28 | 139 | 1.6 | 9.7 | 0.00 | 0.00 | 0.00 | 85 | 1010.0 |
| 20260509164652 | 27 | 116 | 1.6 | 9.7 | 0.00 | 0.00 | 0.00 | 85 | 1010.0 |
| 20260509164414 | 27 | 173 | 3.2 | 9.7 | 0.00 | 0.00 | 0.00 | 87 | 1010.0 |
| 20260509163631 | 27 | 176 | 3.2 | 9.7 | 0.00 | 0.00 | 0.00 | 87 | 1009.8 |
| 20260509163131 | 27 | 167 | 3.2 | 8.0 | 0.00 | 0.00 | 0.00 | 87 | 1009.8 |
| 20260509162612 | 26 | 175 | 1.6 | 6.4 | 0.00 | 0.00 | 0.00 | 88 | 1010.0 |
| 20260509162109 | 26 | 153 | 1.6 | 4.8 | 0.00 | 0.00 | 0.00 | 88 | 1010.0 |
| 20260509161610 | 26 | 303 | 0.0 | 3.2 | 0.00 | 0.00 | 0.00 | 89 | 1010.0 |
| 20260509161111 | 26 | 303 | 0.0 | 3.2 | 0.00 | 0.00 | 0.00 | 89 | 1010.1 |
| 20260509160608 | 26 | 304 | 1.6 | 4.8 | 0.00 | 0.00 | 0.00 | 89 | 1010.2 |
| 20260509160324 | 26 | 303 | 1.6 | 4.8 | 0.00 | 0.00 | 0.00 | 89 | 1010.3 |
| 20260509155556 | 26 | 305 | 0.0 | 3.2 | 0.00 | 0.00 | 0.00 | 90 | 1010.4 |
| 20260509155029 | 26 | 304 | 0.0 | 3.2 | 0.00 | 0.00 | 0.00 | 90 | 1010.5 |
| 20260509154508 | 26 | 304 | 0.0 | 1.6 | 0.00 | 0.00 | 0.00 | 91 | 1010.5 |
| 20260509153942 | 25 | 304 | 0.0 | 1.6 | 0.00 | 0.00 | 0.00 | 91 | 1010.6 |
| 20260509153417 | 25 | 304 | 0.0 | 1.6 | 0.00 | 0.00 | 0.00 | 92 | 1010.6 |
| 20260509152910 | 25 | 304 | 0.0 | 1.6 | 0.00 | 0.00 | 0.00 | 92 | 1010.6 |
| 20260509152409 | 25 | 304 | 0.0 | 1.6 | 0.00 | 0.00 | 0.00 | 93 | 1010.6 |
| 20260509151851 | 25 | 304 | 0.0 | 1.6 | 0.00 | 0.00 | 0.00 | 94 | 1010.5 |
| 20260509151352 | 25 | 304 | 0.0 | 3.2 | 0.00 | 0.00 | 0.00 | 95 | 1010.4 |
| 20260509150830 | 25 | 304 | 0.0 | 3.2 | 0.00 | 0.00 | 0.00 | 95 | 1010.5 |
| 20260509150309 | 25 | 304 | 1.6 | 3.2 | 0.00 | 0.00 | 0.00 | 96 | 1010.3 |
| 20260509145747 | 25 | 306 | 0.0 | 3.2 | 0.00 | 0.00 | 0.00 | 96 | 1010.2 |
| 20260509145246 | 25 | 323 | 0.0 | 3.2 | 0.00 | 0.00 | 0.00 | 97 | 1010.1 |
| 20260509144723 | 25 | 311 | 0.0 | 3.2 | 0.00 | 0.00 | 0.00 | 97 | 1010.0 |
| 20260509144157 | 25 | 321 | 0.0 | 1.6 | 0.00 | 0.00 | 0.00 | 97 | 1009.9 |
| 20260509143637 | 24 | 335 | 0.0 | 1.6 | 0.00 | 0.00 | 0.00 | 98 | 1009.9 |
| 20260509143407 | 24 | 338 | 0.0 | 1.6 | 0.00 | 0.00 | 0.00 | 97 | 1009.8 |
| 20260509142624 | 24 | 338 | 0.0 | 1.6 | 0.00 | 0.00 | 0.00 | 98 | 1009.9 |
| 20260509142118 | 24 | 338 | 0.0 | 1.6 | 0.00 | 0.00 | 0.00 | 97 | 1009.9 |
| 20260509141620 | 24 | 338 | 0.0 | 1.6 | 0.00 | 0.00 | 0.00 | 98 | 1009.8 |
| 20260509141058 | 24 | 338 | 0.0 | 1.6 | 0.00 | 0.00 | 0.00 | 97 | 1009.6 |
| 20260509140532 | 24 | 337 | 0.0 | 1.6 | 0.00 | 0.00 | 0.00 | 98 | 1009.5 |
| 20260509140007 | 24 | 337 | 0.0 | 1.6 | 0.00 | 0.00 | 0.00 | 98 | 1009.7 |
| 20260509135445 | 24 | 337 | 0.0 | 1.6 | 0.00 | 0.00 | 0.00 | 98 | 1009.8 |
| 20260509134945 | 23 | 337 | 0.0 | 1.6 | 0.00 | 0.00 | 0.00 | 98 | 1009.6 |
| 20260509134445 | 23 | 337 | 0.0 | 1.6 | 0.00 | 0.00 | 0.00 | 98 | 1009.8 |
| 20260509133937 | 23 | 337 | 0.0 | 1.6 | 0.00 | 0.00 | 0.00 | 98 | 1009.9 |
| 20260509133413 | 23 | 337 | 0.0 | 3.2 | 0.00 | 0.00 | 0.00 | 98 | 1010.1 |
| 20260509132911 | 23 | 338 | 0.0 | 3.2 | 0.00 | 0.00 | 0.00 | 98 | 1009.9 |
| 20260509132412 | 23 | 337 | 1.6 | 3.2 | 0.00 | 0.00 | 0.00 | 98 | 1010.0 |
| 20260509131903 | 23 | 335 | 0.0 | 3.2 | 0.00 | 0.00 | 0.00 | 98 | 1010.3 |
| 20260509131402 | 23 | 336 | 0.0 | 1.6 | 0.00 | 0.00 | 0.00 | 98 | 1010.4 |
| 20260509131126 | 23 | 336 | 0.0 | 3.2 | 0.00 | 0.00 | 0.00 | 98 | 1010.4 |
| 20260509130402 | 23 | 110 | 0.0 | 3.2 | 0.00 | 0.00 | 0.00 | 98 | 1010.5 |
| 20260509125844 | 23 | 110 | 0.0 | 1.6 | 0.00 | 0.00 | 0.00 | 98 | 1010.5 |
| 20260509125346 | 23 | 110 | 0.0 | 1.6 | 0.00 | 0.00 | 0.00 | 98 | 1010.4 |
| 20260509124837 | 23 | 110 | 0.0 | 1.6 | 0.00 | 0.00 | 0.00 | 98 | 1010.3 |
| 20260509124335 | 23 | 110 | 0.0 | 0.0 | 0.00 | 0.00 | 0.00 | 98 | 1010.4 |
| 20260509123834 | 23 | 110 | 0.0 | 0.0 | 0.00 | 0.00 | 0.00 | 98 | 1010.2 |
| 20260509123336 | 23 | 110 | 0.0 | 0.0 | 0.00 | 0.00 | 0.00 | 98 | 1010.2 |
| 20260509122813 | 23 | 110 | 0.0 | 0.0 | 0.00 | 0.00 | 0.00 | 98 | 1010.2 |
| 20260509122253 | 23 | 110 | 0.0 | 0.0 | 0.00 | 0.00 | 0.00 | 97 | 1010.1 |
| 20260509121727 | 23 | 110 | 0.0 | 0.0 | 0.00 | 0.00 | 0.00 | 98 | 1009.9 |
| 20260509121226 | 23 | 110 | 0.0 | 1.6 | 0.00 | 0.00 | 0.00 | 97 | 1009.8 |
| 20260509120728 | 22 | 110 | 0.0 | 1.6 | 0.00 | 0.00 | 0.00 | 97 | 1009.7 |
| 20260509120215 | 22 | 110 | 0.0 | 1.6 | 0.00 | 0.00 | 0.00 | 97 | 1009.5 |
| 20260509115714 | 22 | 110 | 0.0 | 1.6 | 0.00 | 0.00 | 0.00 | 97 | 1009.4 |
| 20260509115212 | 22 | 110 | 0.0 | 0.0 | 0.00 | 0.00 | 0.00 | 97 | 1009.4 |
| 20260509114652 | 22 | 110 | 0.0 | 1.6 | 0.00 | 0.00 | 0.00 | 97 | 1009.6 |
| 20260509114134 | 23 | 110 | 0.0 | 1.6 | 0.00 | 0.00 | 0.00 | 97 | 1009.7 |
| 20260509114111 | 23 | 110 | 0.0 | 1.6 | 0.00 | 0.00 | 0.00 | 97 | 1009.8 |
| 20260509113056 | 23 | 110 | 0.0 | 3.2 | 0.00 | 0.00 | 0.00 | 97 | 1009.9 |
| 20260509112814 | 23 | 110 | 0.0 | 3.2 | 0.00 | 0.00 | 0.00 | 97 | 1009.7 |
| 20260509112056 | 23 | 110 | 0.0 | 1.6 | 0.00 | 0.00 | 0.00 | 97 | 1009.7 |
| 20260509111558 | 23 | 110 | 0.0 | 0.0 | 0.00 | 0.00 | 0.00 | 97 | 1009.9 |
| 20260509111052 | 23 | 110 | 0.0 | 0.0 | 0.00 | 0.00 | 0.00 | 97 | 1010.0 |
| 20260509110539 | 23 | 110 | 0.0 | 0.0 | 0.00 | 0.00 | 0.00 | 97 | 1010.1 |
| 20260509110239 | 23 | 110 | 0.0 | 3.2 | 0.00 | 0.00 | 0.00 | 97 | 1010.1 |
| 20260509105955 | 23 | 110 | 0.0 | 3.2 | 0.00 | 0.00 | 0.00 | 97 | 1009.9 |
| 20260509105008 | 23 | 110 | 1.6 | 3.2 | 0.00 | 0.00 | 0.00 | 97 | 1009.9 |
| 20260509104452 | 23 | 110 | 1.6 | 3.2 | 0.00 | 0.00 | 0.00 | 97 | 1009.9 |
| 20260509103932 | 23 | 116 | 0.0 | 3.2 | 0.00 | 0.00 | 0.00 | 97 | 1009.9 |
| 20260509103412 | 23 | 141 | 0.0 | 0.0 | 0.00 | 0.00 | 0.00 | 97 | 1009.8 |
| 20260509102852 | 23 | 141 | 0.0 | 0.0 | 0.00 | 0.00 | 0.00 | 97 | 1009.7 |
| 20260509102554 | 22 | 141 | 0.0 | 0.0 | 0.00 | 0.00 | 0.00 | 97 | 1009.5 |
| 20260509101814 | 22 | 141 | 0.0 | 0.0 | 0.00 | 0.00 | 0.00 | 97 | 1009.4 |
| 20260509101248 | 23 | 141 | 0.0 | 0.0 | 0.00 | 0.00 | 0.00 | 97 | 1009.4 |
| 20260509100723 | 23 | 141 | 0.0 | 0.0 | 0.00 | 0.00 | 0.00 | 97 | 1009.1 |
| 20260509100200 | 23 | 141 | 0.0 | 0.0 | 0.00 | 0.00 | 0.00 | 97 | 1008.9 |
| 20260509095639 | 23 | 141 | 0.0 | 0.0 | 0.00 | 0.00 | 0.00 | 97 | 1008.8 |
| 20260509095124 | 22 | 141 | 0.0 | 0.0 | 0.00 | 0.00 | 0.00 | 97 | 1008.7 |
| 20260509094604 | 22 | 141 | 0.0 | 0.0 | 0.00 | 0.00 | 0.00 | 97 | 1008.7 |
| 20260509094044 | 23 | 141 | 0.0 | 0.0 | 0.00 | 0.00 | 0.00 | 97 | 1008.7 |
| 20260509093523 | 23 | 141 | 0.0 | 0.0 | 0.00 | 0.00 | 0.00 | 97 | 1009.0 |
| 20260509093002 | 23 | 141 | 0.0 | 0.0 | 0.00 | 0.00 | 0.00 | 97 | 1009.2 |
| 20260509092734 | 23 | 141 | 0.0 | 0.0 | 0.00 | 0.00 | 0.00 | 97 | 1009.3 |
| 20260509091943 | 23 | 141 | 0.0 | 0.0 | 0.00 | 0.00 | 0.00 | 97 | 1009.4 |
| 20260509091419 | 23 | 141 | 0.0 | 0.0 | 0.00 | 0.00 | 0.00 | 97 | 1009.4 |
| 20260509090900 | 23 | 141 | 0.0 | 0.0 | 0.00 | 0.00 | 0.00 | 97 | 1009.5 |
| 20260509090346 | 23 | 141 | 0.0 | 0.0 | 0.00 | 0.00 | 0.00 | 97 | 1009.4 |
| 20260509090315 | 23 | 141 | 0.0 | 0.0 | 0.00 | 0.00 | 0.00 | 97 | 1009.4 |
| 20260509085310 | 23 | 141 | 0.0 | 1.6 | 0.00 | 0.00 | 0.00 | 97 | 1009.4 |
| 20260509085033 | 23 | 141 | 0.0 | 1.6 | 0.00 | 0.00 | 0.00 | 97 | 1009.4 |
| 20260509084304 | 23 | 141 | 0.0 | 1.6 | 0.00 | 0.00 | 0.00 | 97 | 1009.5 |
| 20260509083804 | 23 | 141 | 0.0 | 1.6 | 0.00 | 0.00 | 0.00 | 97 | 1009.6 |
| 20260509083247 | 23 | 141 | 0.0 | 1.6 | 0.00 | 0.00 | 0.00 | 97 | 1009.6 |
| 20260509082939 | 23 | 141 | 0.0 | 1.6 | 0.00 | 0.00 | 0.00 | 97 | 1009.6 |
| 20260509082221 | 23 | 141 | 0.0 | 1.6 | 0.00 | 0.00 | 0.00 | 97 | 1009.6 |
| 20260509081709 | 23 | 141 | 0.0 | 1.6 | 0.00 | 0.00 | 0.00 | 97 | 1009.5 |
| 20260509081211 | 23 | 141 | 0.0 | 3.2 | 0.00 | 0.00 | 0.00 | 97 | 1009.3 |
| 20260509080648 | 23 | 141 | 0.0 | 3.2 | 0.00 | 0.00 | 0.00 | 97 | 1009.2 |
| 20260509080147 | 23 | 141 | 0.0 | 3.2 | 0.00 | 0.00 | 0.00 | 96 | 1009.2 |
| 20260509075647 | 23 | 141 | 0.0 | 3.2 | 0.00 | 0.00 | 0.00 | 97 | 1009.2 |
| 20260509075125 | 23 | 141 | 0.0 | 3.2 | 0.00 | 0.00 | 0.00 | 97 | 1009.2 |
| 20260509074626 | 23 | 141 | 0.0 | 3.2 | 0.00 | 0.00 | 0.00 | 97 | 1009.4 |
| 20260509074107 | 23 | 141 | 0.0 | 3.2 | 0.00 | 0.00 | 0.00 | 97 | 1009.5 |
| 20260509073559 | 23 | 141 | 0.0 | 3.2 | 0.00 | 0.00 | 0.00 | 97 | 1009.4 |
| 20260509073301 | 23 | 141 | 0.0 | 3.2 | 0.00 | 0.00 | 0.00 | 97 | 1009.4 |
| 20260509072543 | 23 | 141 | 1.6 | 3.2 | 0.00 | 0.00 | 0.00 | 96 | 1009.5 |
| 20260509072032 | 23 | 141 | 1.6 | 4.8 | 0.00 | 0.00 | 0.00 | 96 | 1009.5 |
| 20260509071528 | 23 | 141 | 0.0 | 4.8 | 0.00 | 0.00 | 0.00 | 96 | 1009.4 |
| 20260509071249 | 23 | 141 | 0.0 | 4.8 | 0.00 | 0.00 | 0.00 | 96 | 1009.4 |
| 20260509070955 | 23 | 145 | 1.6 | 3.2 | 0.00 | 0.00 | 0.00 | 96 | 1009.3 |
| 20260509070010 | 23 | 145 | 1.6 | 4.8 | 0.00 | 0.00 | 0.00 | 96 | 1009.3 |
| 20260509065734 | 23 | 145 | 1.6 | 4.8 | 0.00 | 0.00 | 0.00 | 96 | 1009.4 |
| 20260509065220 | 23 | 145 | 0.0 | 4.8 | 0.00 | 0.00 | 0.00 | 96 | 1009.5 |
| 20260509064457 | 23 | 145 | 1.6 | 4.8 | 0.00 | 0.00 | 0.00 | 96 | 1009.6 |
| 20260509063954 | 23 | 145 | 1.6 | 4.8 | 0.00 | 0.00 | 0.00 | 96 | 1009.5 |
| 20260509063432 | 23 | 146 | 1.6 | 4.8 | 0.00 | 0.00 | 0.00 | 96 | 1009.5 |
| 20260509062908 | 23 | 148 | 0.0 | 3.2 | 0.00 | 0.00 | 0.00 | 96 | 1009.7 |
| 20260509062346 | 23 | 147 | 0.0 | 3.2 | 0.00 | 0.00 | 0.00 | 96 | 1009.8 |
| 20260509061828 | 23 | 147 | 0.0 | 4.8 | 0.00 | 0.00 | 0.00 | 96 | 1009.8 |
| 20260509061326 | 23 | 148 | 0.0 | 4.8 | 0.00 | 0.00 | 0.00 | 96 | 1009.9 |
| 20260509060824 | 23 | 148 | 0.0 | 3.2 | 0.00 | 0.00 | 0.00 | 96 | 1009.9 |
| 20260509060258 | 23 | 148 | 0.0 | 3.2 | 0.00 | 0.00 | 0.00 | 96 | 1010.0 |
| 20260509055740 | 23 | 148 | 0.0 | 3.2 | 0.00 | 0.00 | 0.00 | 96 | 1010.0 |
| 20260509055216 | 23 | 148 | 1.6 | 6.4 | 0.00 | 0.00 | 0.00 | 96 | 1009.9 |
| 20260509054700 | 23 | 148 | 1.6 | 6.4 | 0.00 | 0.00 | 0.00 | 96 | 1010.0 |
| 20260509054643 | 23 | 141 | 1.6 | 6.4 | 0.00 | 0.00 | 0.00 | 96 | 1010.0 |
| 20260509053950 | 23 | 127 | 1.6 | 6.4 | 0.00 | 0.00 | 0.00 | 96 | 1010.0 |
| 20260509053842 | 23 | 128 | 1.6 | 6.4 | 0.00 | 0.00 | 0.00 | 96 | 1010.1 |
| 20260509052611 | 23 | 150 | 0.0 | 6.4 | 0.00 | 0.00 | 0.00 | 96 | 1010.0 |
| 20260509052046 | 23 | 150 | 1.6 | 6.4 | 0.00 | 0.00 | 0.00 | 96 | 1009.9 |
| 20260509051527 | 23 | 159 | 1.6 | 8.0 | 0.00 | 0.00 | 0.00 | 96 | 1009.9 |
| 20260509051028 | 23 | 143 | 1.6 | 8.0 | 0.00 | 0.00 | 0.00 | 96 | 1010.0 |
| 20260509050512 | 23 | 145 | 1.6 | 8.0 | 0.00 | 0.00 | 0.00 | 96 | 1010.0 |
| 20260509045958 | 23 | 139 | 0.0 | 4.8 | 0.00 | 0.00 | 0.00 | 96 | 1010.0 |
| 20260509045500 | 22 | 139 | 0.0 | 4.8 | 0.00 | 0.00 | 0.00 | 96 | 1010.1 |